Time;durP1;ratioP1;P1;durP2;ratioP2;P2;SDS_P1;SDS_P2;PMS_P1;PMS_P2;Temp;Humidity;BMP_temperature;BMP_pressure;BME280_temperature;BME280_humidity;BME280_pressure;Samples;Min_cycle;Max_cycle;Signal;HPM_P1;HPM_P2
2022/02/13 00:00:15;;;;;;;12.25;5.45;;;2.30;44.00;;;;;;5054671;28;20433;-73
2022/02/13 00:02:42;;;;;;;12.73;6.05;;;2.40;44.60;;;;;;5054652;28;20214;-73
2022/02/13 00:05:08;;;;;;;13.32;6.10;;;2.30;43.30;;;;;;5054874;28;20722;-73
2022/02/13 00:07:35;;;;;;;7.88;5.45;;;2.30;43.60;;;;;;5054346;28;20175;-73
2022/02/13 00:10:01;;;;;;;17.38;6.07;;;2.40;43.70;;;;;;5054833;28;20184;-73
2022/02/13 00:12:27;;;;;;;8.68;5.75;;;2.40;43.00;;;;;;5054653;28;20580;-73
2022/02/13 00:14:55;;;;;;;12.33;5.77;;;2.40;43.60;;;;;;5054420;28;20262;-73
2022/02/13 00:17:21;;;;;;;11.90;6.20;;;2.40;43.50;;;;;;5052891;28;20502;-72
2022/02/13 00:19:47;;;;;;;14.35;6.00;;;2.40;43.10;;;;;;5054270;28;20171;-73
2022/02/13 00:22:13;;;;;;;20.77;6.40;;;2.40;42.40;;;;;;5054271;28;20194;-73
2022/02/13 00:24:39;;;;;;;13.35;6.07;;;2.30;42.30;;;;;;5054534;28;20254;-73
2022/02/13 00:27:05;;;;;;;13.37;6.40;;;2.30;43.70;;;;;;5054732;28;20272;-73
2022/02/13 00:29:30;;;;;;;8.70;4.90;;;2.40;42.20;;;;;;5055339;28;20175;-73
2022/02/13 00:31:56;;;;;;;9.70;5.37;;;2.40;44.10;;;;;;5056894;28;20215;-73
2022/02/13 00:34:21;;;;;;;19.00;6.50;;;2.30;42.00;;;;;;5059055;28;20228;-73
2022/02/13 00:36:47;;;;;;;10.73;5.80;;;2.30;43.20;;;;;;5057483;28;20563;-74
2022/02/13 00:39:13;;;;;;;16.90;5.60;;;2.30;42.20;;;;;;5057897;28;20175;-73
2022/02/13 00:41:38;;;;;;;18.77;5.83;;;2.40;40.90;;;;;;5054278;28;20191;-73
2022/02/13 00:44:04;;;;;;;8.80;5.77;;;2.40;42.10;;;;;;5055096;28;20629;-73
2022/02/13 00:46:30;;;;;;;11.70;5.70;;;2.40;41.50;;;;;;5054216;28;20182;-73
2022/02/13 00:48:56;;;;;;;11.20;6.27;;;2.30;41.20;;;;;;5055507;28;20906;-73
2022/02/13 00:51:21;;;;;;;12.13;5.87;;;2.40;41.00;;;;;;5055263;28;20191;-73
2022/02/13 00:53:47;;;;;;;10.53;5.40;;;2.30;41.00;;;;;;5056992;28;20246;-73
2022/02/13 00:56:14;;;;;;;14.82;5.55;;;2.40;42.00;;;;;;5057175;28;20172;-73
2022/02/13 00:58:44;;;;;;;11.30;6.10;;;2.40;42.50;;;;;;5057934;28;20202;-73
2022/02/13 01:01:10;;;;;;;16.00;6.20;;;2.30;41.50;;;;;;5058725;28;20225;-73
2022/02/13 01:03:36;;;;;;;6.90;4.15;;;2.30;41.90;;;;;;5060438;28;20175;-73
2022/02/13 01:06:02;;;;;;;12.30;5.57;;;2.30;42.30;;;;;;5058759;28;20183;-73
2022/02/13 01:08:27;;;;;;;16.88;5.88;;;2.30;40.50;;;;;;5058257;28;20554;-73
2022/02/13 01:10:53;;;;;;;15.47;6.90;;;2.30;40.90;;;;;;5054779;28;20179;-73
2022/02/13 01:13:19;;;;;;;9.20;5.60;;;2.20;41.40;;;;;;5053517;28;20548;-73
2022/02/13 01:15:45;;;;;;;10.23;5.70;;;2.20;43.80;;;;;;5053447;28;20178;-72
2022/02/13 01:18:11;;;;;;;10.80;5.50;;;2.30;42.10;;;;;;5053189;28;20325;-72
2022/02/13 01:20:37;;;;;;;13.88;5.70;;;2.20;42.70;;;;;;5053193;28;20398;-73
2022/02/13 01:23:02;;;;;;;9.83;5.63;;;2.20;42.70;;;;;;5053312;28;20234;-72
2022/02/13 01:25:28;;;;;;;14.83;5.93;;;2.10;41.70;;;;;;5053525;28;20533;-72
2022/02/13 01:27:54;;;;;;;13.13;6.33;;;2.00;42.60;;;;;;5069653;28;20179;-73
2022/02/13 01:30:19;;;;;;;13.03;5.60;;;2.00;41.90;;;;;;5053692;28;20184;-73
2022/02/13 01:32:45;;;;;;;14.20;5.97;;;2.00;42.00;;;;;;5053578;28;20240;-73
2022/02/13 01:35:10;;;;;;;12.07;5.97;;;2.00;42.40;;;;;;5052946;28;20167;-73
2022/02/13 01:37:36;;;;;;;7.27;4.80;;;2.00;42.90;;;;;;5052716;28;20203;-73
2022/02/13 01:40:03;;;;;;;12.73;5.80;;;1.90;42.10;;;;;;5052662;28;20171;-73
2022/02/13 01:42:29;;;;;;;12.30;6.57;;;2.00;42.80;;;;;;5052615;28;20244;-73
2022/02/13 01:44:55;;;;;;;8.80;5.20;;;2.00;41.70;;;;;;5052585;28;20171;-73
2022/02/13 01:47:22;;;;;;;8.43;5.60;;;2.00;41.60;;;;;;5052925;28;20182;-71
2022/02/13 01:49:48;;;;;;;29.20;5.60;;;1.90;42.60;;;;;;5051959;28;20175;-71
2022/02/13 01:52:14;;;;;;;12.77;6.20;;;2.00;42.30;;;;;;5052739;28;20198;-72
2022/02/13 01:54:40;;;;;;;14.00;5.30;;;1.90;43.30;;;;;;5052673;28;20186;-72
2022/02/13 01:57:10;;;;;;;15.98;5.53;;;1.90;41.70;;;;;;5053048;28;20207;-72
2022/02/13 01:59:36;;;;;;;11.27;5.10;;;1.90;42.60;;;;;;5052939;28;20224;-72
2022/02/13 02:02:02;;;;;;;12.97;5.80;;;1.90;42.00;;;;;;5052519;28;20222;-72
2022/02/13 02:04:28;;;;;;;13.55;5.97;;;1.90;41.40;;;;;;5053194;28;20496;-72
2022/02/13 02:06:54;;;;;;;12.50;5.30;;;1.80;41.50;;;;;;5052223;28;20274;-72
2022/02/13 02:09:23;;;;;;;16.15;6.85;;;1.80;42.40;;;;;;5052439;28;20538;-72
2022/02/13 02:11:49;;;;;;;11.60;5.45;;;1.80;43.30;;;;;;5052540;28;20203;-72
2022/02/13 02:14:14;;;;;;;9.87;5.83;;;1.80;42.30;;;;;;5052488;28;20167;-73
2022/02/13 02:16:40;;;;;;;10.73;5.43;;;1.80;41.80;;;;;;5052046;28;20175;-72
2022/02/13 02:19:08;;;;;;;7.97;4.67;;;1.80;41.40;;;;;;5052444;28;20263;-72
2022/02/13 02:21:34;;;;;;;11.63;5.93;;;1.80;43.20;;;;;;5052230;28;20603;-72
2022/02/13 02:24:00;;;;;;;8.53;5.07;;;1.70;41.90;;;;;;5052162;28;20175;-72
2022/02/13 02:26:25;;;;;;;12.37;5.60;;;1.70;42.20;;;;;;5052023;28;20179;-72
2022/02/13 02:28:51;;;;;;;9.70;4.80;;;1.70;42.30;;;;;;5052176;28;20202;-72
2022/02/13 02:31:17;;;;;;;9.63;4.17;;;1.80;42.30;;;;;;5052238;28;20214;-72
2022/02/13 02:33:42;;;;;;;8.30;5.30;;;1.80;42.20;;;;;;5052117;28;20179;-72
2022/02/13 02:36:16;;;;;;;8.80;5.40;;;1.80;41.40;;;;;;5052143;28;20410;-72
2022/02/13 02:38:41;;;;;;;8.50;4.90;;;1.70;42.30;;;;;;5051687;28;20716;-72
2022/02/13 02:41:07;;;;;;;8.67;4.90;;;1.70;42.00;;;;;;5052000;28;20206;-72
2022/02/13 02:43:33;;;;;;;8.30;5.50;;;1.70;41.90;;;;;;5051885;28;20240;-73
2022/02/13 02:45:59;;;;;;;15.07;5.30;;;1.70;42.80;;;;;;5051755;28;20179;-72
2022/02/13 02:48:24;;;;;;;12.95;6.40;;;1.70;41.70;;;;;;5051563;28;20675;-72
2022/02/13 02:50:50;;;;;;;10.77;5.17;;;1.70;42.00;;;;;;5051729;28;20260;-72
2022/02/13 02:53:15;;;;;;;9.57;4.83;;;1.70;42.00;;;;;;5052037;28;20216;-72
2022/02/13 02:55:41;;;;;;;14.37;5.50;;;1.70;42.30;;;;;;5051913;28;20171;-72
2022/02/13 02:58:07;;;;;;;11.50;5.23;;;1.70;42.10;;;;;;5051520;28;20199;-72
2022/02/13 03:00:33;;;;;;;12.80;5.53;;;1.60;42.40;;;;;;5053310;28;20175;-72
2022/02/13 03:02:58;;;;;;;7.90;5.30;;;1.60;42.40;;;;;;5055771;28;20210;-72
2022/02/13 03:05:24;;;;;;;11.17;5.20;;;1.70;44.20;;;;;;5056084;28;20171;-72
2022/02/13 03:07:49;;;;;;;7.13;4.90;;;1.70;42.40;;;;;;5055934;28;20179;-73
2022/02/13 03:10:15;;;;;;;11.30;5.47;;;1.60;42.30;;;;;;5055867;28;20187;-73
2022/02/13 03:12:41;;;;;;;13.13;6.17;;;1.70;43.50;;;;;;5055435;28;20684;-73
2022/02/13 03:15:06;;;;;;;11.20;5.63;;;1.60;41.90;;;;;;5056121;28;20168;-73
2022/02/13 03:17:32;;;;;;;14.40;6.47;;;1.60;43.70;;;;;;5055457;28;20216;-73
2022/02/13 03:19:57;;;;;;;14.97;5.27;;;1.60;41.90;;;;;;5055635;28;20452;-73
2022/02/13 03:22:23;;;;;;;10.70;5.40;;;1.60;42.10;;;;;;5055539;28;20654;-72
2022/02/13 03:24:49;;;;;;;10.53;6.23;;;1.60;43.50;;;;;;5055709;28;20168;-72
2022/02/13 03:27:14;;;;;;;9.40;5.67;;;1.60;42.00;;;;;;5055458;28;20171;-72
2022/02/13 03:29:40;;;;;;;13.90;6.17;;;1.60;42.70;;;;;;5055367;28;20664;-73
2022/02/13 03:32:05;;;;;;;16.57;4.70;;;1.60;41.50;;;;;;5055122;28;20280;-73
2022/02/13 03:34:31;;;;;;;9.80;5.40;;;1.60;41.80;;;;;;5055382;28;20202;-73
2022/02/13 03:36:57;;;;;;;11.00;5.80;;;1.60;41.50;;;;;;5055537;28;20556;-73
2022/02/13 03:39:22;;;;;;;8.47;5.00;;;1.60;41.30;;;;;;5055713;28;20180;-73
2022/02/13 03:41:48;;;;;;;8.30;4.90;;;1.70;42.60;;;;;;5056310;28;20199;-74
2022/02/13 03:44:13;;;;;;;6.70;5.03;;;1.60;40.80;;;;;;5062656;28;20234;-72
2022/02/13 03:46:39;;;;;;;6.10;4.97;;;1.50;41.60;;;;;;5065775;28;20241;-72
2022/02/13 03:49:07;;;;;;;9.10;5.50;;;1.60;41.60;;;;;;5059717;28;20696;-72
2022/02/13 03:51:33;;;;;;;9.98;5.32;;;1.50;41.60;;;;;;5055365;28;20845;-73
2022/02/13 03:53:58;;;;;;;15.07;5.03;;;1.50;41.60;;;;;;5056494;28;20183;-73
2022/02/13 03:56:24;;;;;;;7.83;5.40;;;1.60;41.20;;;;;;5058431;28;20408;-73
2022/02/13 03:58:49;;;;;;;16.50;4.80;;;1.50;41.60;;;;;;5058726;28;20762;-72
2022/02/13 04:01:15;;;;;;;12.87;5.60;;;1.50;41.30;;;;;;5056972;28;20728;-72
2022/02/13 04:03:41;;;;;;;13.10;5.60;;;1.50;42.90;;;;;;5057617;28;20231;-72
2022/02/13 04:06:06;;;;;;;15.77;5.80;;;1.50;42.90;;;;;;5056651;28;20179;-73
2022/02/13 04:08:32;;;;;;;11.67;4.43;;;1.40;42.60;;;;;;5054967;28;20179;-73
2022/02/13 04:10:58;;;;;;;9.80;5.30;;;1.40;42.70;;;;;;5055105;28;20620;-73
2022/02/13 04:13:24;;;;;;;11.48;6.13;;;1.40;42.80;;;;;;5053670;28;20175;-73
2022/02/13 04:15:50;;;;;;;14.13;5.50;;;1.40;42.30;;;;;;5054595;28;20175;-73
2022/02/13 04:18:18;;;;;;;11.57;5.33;;;1.30;42.70;;;;;;5054176;28;20460;-74
2022/02/13 04:20:44;;;;;;;10.30;6.15;;;1.30;42.80;;;;;;5054372;28;20171;-73
2022/02/13 04:23:10;;;;;;;10.40;4.90;;;1.30;43.00;;;;;;5053958;28;20700;-73
2022/02/13 04:25:37;;;;;;;12.73;5.80;;;1.40;43.70;;;;;;5054004;28;20410;-72
2022/02/13 04:28:04;;;;;;;11.05;6.15;;;1.40;44.50;;;;;;5053818;28;20350;-72
2022/02/13 04:30:29;;;;;;;13.43;5.90;;;1.30;42.50;;;;;;5053905;28;20537;-72
2022/02/13 04:32:56;;;;;;;16.00;6.80;;;1.30;42.40;;;;;;5054117;28;20218;-73
2022/02/13 04:35:23;;;;;;;12.70;5.85;;;1.20;43.40;;;;;;5054221;28;20409;-71
2022/02/13 04:37:52;;;;;;;11.70;5.50;;;1.20;42.80;;;;;;5053498;28;20690;-72
2022/02/13 04:40:19;;;;;;;11.93;5.90;;;1.10;42.90;;;;;;5054155;28;20644;-73
2022/02/13 04:42:45;;;;;;;13.35;6.25;;;1.20;43.90;;;;;;5053821;28;20213;-73
2022/02/13 04:45:11;;;;;;;9.25;5.88;;;1.20;43.30;;;;;;5053960;28;20171;-72
2022/02/13 04:47:36;;;;;;;11.03;6.30;;;1.20;44.50;;;;;;5053709;28;20175;-73
2022/02/13 04:50:03;;;;;;;13.47;5.20;;;1.20;43.70;;;;;;5054197;28;20255;-73
2022/02/13 04:52:29;;;;;;;8.63;5.60;;;1.20;44.80;;;;;;5053765;28;20199;-73
2022/02/13 04:54:54;;;;;;;16.10;6.60;;;1.20;42.60;;;;;;5053587;28;20679;-73
2022/02/13 04:57:20;;;;;;;15.23;5.37;;;1.20;43.10;;;;;;5053379;28;20463;-73
2022/02/13 04:59:46;;;;;;;10.07;4.93;;;1.20;43.40;;;;;;5053384;28;20171;-73
2022/02/13 05:02:11;;;;;;;9.40;5.23;;;1.10;43.10;;;;;;5053255;28;20332;-72
2022/02/13 05:04:37;;;;;;;12.03;5.80;;;1.10;42.90;;;;;;5053422;28;20175;-73
2022/02/13 05:07:05;;;;;;;17.10;6.03;;;1.10;43.90;;;;;;5053463;28;20182;-72
2022/02/13 05:09:31;;;;;;;12.90;6.20;;;1.10;43.60;;;;;;5053479;28;20254;-72
2022/02/13 05:11:56;;;;;;;12.57;5.90;;;1.10;42.90;;;;;;5053207;28;20203;-72
2022/02/13 05:14:22;;;;;;;15.23;5.47;;;1.10;42.30;;;;;;5053111;28;20706;-73
2022/02/13 05:16:48;;;;;;;15.30;5.40;;;1.00;42.40;;;;;;5053257;28;20659;-72
2022/02/13 05:19:14;;;;;;;9.93;5.60;;;1.10;43.90;;;;;;5053374;28;20182;-72
2022/02/13 05:21:40;;;;;;;12.50;5.07;;;1.10;42.40;;;;;;5052918;28;20195;-72
2022/02/13 05:24:06;;;;;;;8.00;4.75;;;1.10;41.70;;;;;;5052268;28;20563;-73
2022/02/13 05:26:31;;;;;;;13.43;6.47;;;1.10;41.80;;;;;;5052644;28;20183;-71
2022/02/13 05:28:58;;;;;;;8.73;5.80;;;1.20;42.20;;;;;;5052948;28;20171;-72
2022/02/13 05:31:29;;;;;;;10.38;5.25;;;1.20;41.40;;;;;;5052782;28;20293;-72
2022/02/13 05:33:59;;;;;;;10.95;6.75;;;1.10;42.00;;;;;;5052863;28;20225;-72
2022/02/13 05:36:24;;;;;;;10.55;6.32;;;1.10;41.90;;;;;;5053129;28;20232;-72
2022/02/13 05:38:50;;;;;;;10.20;6.10;;;1.10;42.00;;;;;;5052916;28;20214;-72
2022/02/13 05:41:16;;;;;;;12.60;6.70;;;1.10;41.70;;;;;;5052950;28;20183;-72
2022/02/13 05:43:41;;;;;;;10.33;5.17;;;1.20;41.50;;;;;;5052720;28;20168;-72
2022/02/13 05:46:07;;;;;;;8.80;5.80;;;1.20;41.30;;;;;;5052640;28;20167;-72
2022/02/13 05:48:32;;;;;;;10.80;6.57;;;1.20;42.20;;;;;;5052362;28;20216;-72
2022/02/13 05:50:59;;;;;;;9.03;5.43;;;1.10;42.10;;;;;;5052673;28;20182;-72
2022/02/13 05:53:24;;;;;;;10.40;5.18;;;1.20;42.50;;;;;;5052627;28;20178;-72
2022/02/13 05:55:50;;;;;;;8.67;5.20;;;1.30;42.40;;;;;;5052613;28;20526;-72
2022/02/13 05:58:16;;;;;;;12.20;4.73;;;1.30;42.40;;;;;;5052669;28;20714;-74
2022/02/13 06:00:42;;;;;;;9.50;5.40;;;1.40;42.30;;;;;;5052649;28;20167;-72
2022/02/13 06:03:08;;;;;;;10.18;5.43;;;1.30;40.70;;;;;;5052233;28;20197;-72
2022/02/13 06:05:34;;;;;;;11.10;6.33;;;1.40;40.50;;;;;;5052402;28;20640;-72
2022/02/13 06:07:59;;;;;;;14.90;6.20;;;1.30;40.80;;;;;;5052230;28;20228;-73
2022/02/13 06:10:25;;;;;;;17.13;6.03;;;1.40;41.30;;;;;;5052386;28;20182;-73
2022/02/13 06:12:50;;;;;;;12.87;6.07;;;1.40;40.60;;;;;;5052291;28;20195;-73
2022/02/13 06:15:16;;;;;;;10.23;6.00;;;1.40;41.10;;;;;;5051907;28;20178;-73
2022/02/13 06:17:41;;;;;;;9.40;5.33;;;1.40;40.70;;;;;;5051902;28;20256;-74
2022/02/13 06:20:07;;;;;;;10.07;4.83;;;1.40;40.30;;;;;;5052261;28;20175;-72
2022/02/13 06:22:33;;;;;;;10.13;6.78;;;1.50;40.70;;;;;;5052416;28;20241;-73
2022/02/13 06:24:59;;;;;;;15.03;7.00;;;1.40;40.00;;;;;;5052521;28;20257;-73
2022/02/13 06:27:24;;;;;;;7.73;4.60;;;1.30;39.90;;;;;;5058496;28;20182;-73
2022/02/13 06:29:50;;;;;;;8.63;5.60;;;1.40;40.40;;;;;;5061743;28;20167;-72
2022/02/13 06:32:16;;;;;;;12.83;5.40;;;1.40;41.10;;;;;;5052342;28;20691;-72
2022/02/13 06:34:42;;;;;;;14.55;5.50;;;1.30;42.20;;;;;;5051653;28;20171;-73
2022/02/13 06:37:08;;;;;;;15.05;6.53;;;1.30;41.10;;;;;;5051601;28;20203;-72
2022/02/13 06:39:35;;;;;;;6.93;5.53;;;1.30;41.10;;;;;;5051897;28;20712;-73
2022/02/13 06:42:01;;;;;;;10.27;5.95;;;1.30;40.90;;;;;;5051988;28;20282;-73
2022/02/13 06:44:26;;;;;;;11.80;6.53;;;1.30;40.70;;;;;;5051880;28;20254;-73
2022/02/13 06:46:52;;;;;;;19.90;7.00;;;1.30;41.00;;;;;;5051924;28;20255;-73
2022/02/13 06:49:18;;;;;;;19.53;5.60;;;1.40;41.10;;;;;;5052321;28;20170;-73
2022/02/13 06:51:43;;;;;;;20.30;7.00;;;1.20;42.30;;;;;;5052350;28;20618;-72
2022/02/13 06:54:09;;;;;;;14.70;6.00;;;1.30;41.40;;;;;;5052500;28;20167;-73
2022/02/13 06:56:34;;;;;;;9.83;5.13;;;1.20;42.00;;;;;;5055660;28;20171;-74
2022/02/13 06:59:00;;;;;;;15.30;6.60;;;1.20;42.20;;;;;;5053536;28;20199;-73
2022/02/13 07:01:25;;;;;;;13.50;6.30;;;1.30;42.60;;;;;;5054340;28;20198;-74
2022/02/13 07:03:51;;;;;;;12.20;6.30;;;1.20;41.90;;;;;;5055106;28;20167;-73
2022/02/13 07:06:16;;;;;;;14.70;5.60;;;1.30;43.10;;;;;;5055445;28;20185;-72
2022/02/13 07:08:42;;;;;;;20.33;6.57;;;1.40;43.20;;;;;;5051820;28;20176;-72
2022/02/13 07:11:08;;;;;;;11.37;6.63;;;1.30;42.40;;;;;;5051861;28;20183;-72
2022/02/13 07:13:34;;;;;;;11.87;6.37;;;1.50;41.60;;;;;;5051907;28;20921;-72
2022/02/13 07:16:00;;;;;;;11.35;6.50;;;1.50;42.30;;;;;;5051605;28;20262;-72
2022/02/13 07:18:25;;;;;;;15.87;6.53;;;1.50;41.10;;;;;;5051374;28;20293;-73
2022/02/13 07:20:52;;;;;;;18.60;7.23;;;1.50;42.00;;;;;;5052154;28;20171;-73
2022/02/13 07:23:18;;;;;;;18.35;6.63;;;1.60;41.90;;;;;;5052043;28;20191;-73
2022/02/13 07:25:43;;;;;;;10.97;6.07;;;1.60;42.60;;;;;;5050964;28;20175;-73
2022/02/13 07:30:53;;;;;;;12.93;7.55;;;1.70;40.30;;;;;;5051386;28;20182;-72
2022/02/13 07:33:19;;;;;;;14.30;6.97;;;1.70;40.60;;;;;;5051456;28;20203;-73
2022/02/13 07:35:44;;;;;;;20.70;6.27;;;1.70;39.70;;;;;;5066934;28;20270;-72
2022/02/13 07:38:10;;;;;;;16.53;8.23;;;1.70;39.50;;;;;;5051412;28;20203;-72
2022/02/13 07:40:37;;;;;;;9.20;6.17;;;1.80;39.80;;;;;;5051338;28;20176;-73
2022/02/13 07:43:03;;;;;;;10.80;6.85;;;1.90;38.60;;;;;;5051220;28;20429;-72
2022/02/13 07:45:28;;;;;;;11.63;5.93;;;1.90;38.70;;;;;;5051559;28;20258;-73
2022/02/13 07:47:54;;;;;;;18.70;7.10;;;2.10;38.90;;;;;;5054014;28;20179;-72
2022/02/13 07:50:19;;;;;;;10.47;5.87;;;2.10;37.90;;;;;;5055033;28;20657;-73
2022/02/13 07:52:45;;;;;;;9.97;5.33;;;2.20;38.10;;;;;;5055017;28;20202;-73
2022/02/13 07:55:12;;;;;;;12.63;5.80;;;2.30;37.00;;;;;;5055013;28;20547;-73
2022/02/13 07:57:38;;;;;;;15.02;5.75;;;2.20;36.80;;;;;;5054911;28;20195;-73
2022/02/13 08:00:05;;;;;;;8.52;5.70;;;2.20;36.80;;;;;;5055820;28;20250;-72
2022/02/13 08:02:32;;;;;;;10.38;5.75;;;2.40;36.30;;;;;;5055097;28;20264;-72
2022/02/13 08:04:58;;;;;;;10.75;5.80;;;2.40;35.50;;;;;;5055020;28;20217;-72
2022/02/13 08:07:23;;;;;;;9.77;5.40;;;2.60;35.50;;;;;;5054590;28;20183;-72
2022/02/13 08:09:49;;;;;;;12.70;5.13;;;2.60;34.90;;;;;;5055501;28;20175;-74
2022/02/13 08:12:14;;;;;;;12.30;5.53;;;2.70;34.00;;;;;;5054479;28;20294;-73
2022/02/13 08:14:40;;;;;;;12.00;5.87;;;2.80;33.70;;;;;;5054884;28;20257;-73
2022/02/13 08:17:06;;;;;;;9.97;5.87;;;2.90;33.30;;;;;;5069657;28;20544;-73
2022/02/13 08:19:35;;;;;;;8.67;5.27;;;2.90;32.90;;;;;;5054291;28;20171;-72
2022/02/13 08:22:02;;;;;;;8.68;4.72;;;3.00;32.40;;;;;;5054221;28;20647;-72
2022/02/13 08:24:28;;;;;;;10.57;5.93;;;3.00;31.50;;;;;;5054369;28;20249;-72
2022/02/13 08:26:53;;;;;;;10.53;5.10;;;3.20;32.10;;;;;;5053982;28;20179;-72
2022/02/13 08:29:19;;;;;;;7.60;4.73;;;3.20;31.20;;;;;;5054288;28;20250;-73
2022/02/13 08:31:45;;;;;;;6.93;4.83;;;3.20;31.40;;;;;;5054063;28;20601;-73
2022/02/13 08:34:10;;;;;;;12.37;6.07;;;3.40;30.60;;;;;;5054268;28;20170;-73
2022/02/13 08:36:36;;;;;;;11.17;5.60;;;3.40;30.90;;;;;;5053753;28;20163;-73
2022/02/13 08:39:02;;;;;;;7.83;5.50;;;3.50;31.40;;;;;;5053942;28;20289;-73
2022/02/13 08:41:27;;;;;;;10.43;5.53;;;3.70;30.10;;;;;;5053837;28;20191;-73
2022/02/13 08:43:53;;;;;;;11.73;5.70;;;3.70;29.10;;;;;;5053886;28;20492;-72
2022/02/13 08:46:18;;;;;;;9.07;4.90;;;3.60;29.50;;;;;;5054053;28;20166;-71
2022/02/13 08:48:44;;;;;;;10.63;4.93;;;3.70;29.90;;;;;;5053613;28;20250;-72
2022/02/13 08:51:11;;;;;;;8.70;5.33;;;3.80;29.20;;;;;;5053867;28;20179;-73
2022/02/13 08:53:37;;;;;;;9.95;5.78;;;4.00;29.10;;;;;;5053896;28;20414;-72
2022/02/13 08:56:03;;;;;;;8.23;4.93;;;4.10;28.20;;;;;;5053864;28;20179;-72
2022/02/13 08:58:28;;;;;;;9.80;4.83;;;4.30;27.80;;;;;;5053199;28;20567;-72
2022/02/13 09:00:56;;;;;;;8.80;5.17;;;4.50;28.00;;;;;;5053839;28;20910;-72
2022/02/13 09:03:21;;;;;;;9.30;5.15;;;4.80;26.40;;;;;;5053978;28;20590;-73
2022/02/13 09:05:47;;;;;;;10.03;5.77;;;4.90;26.80;;;;;;5054842;28;20171;-73
2022/02/13 09:08:12;;;;;;;9.40;5.13;;;4.90;25.70;;;;;;5057366;28;20570;-73
2022/02/13 09:10:38;;;;;;;10.37;5.97;;;4.90;25.50;;;;;;5056563;28;20225;-73
2022/02/13 09:13:04;;;;;;;10.40;5.70;;;5.00;26.00;;;;;;5053989;28;20195;-73
2022/02/13 09:15:30;;;;;;;12.77;6.30;;;5.20;25.00;;;;;;5055381;28;20689;-72
2022/02/13 09:17:56;;;;;;;8.60;5.22;;;5.10;25.20;;;;;;5071063;28;20505;-72
2022/02/13 09:20:21;;;;;;;11.27;5.30;;;5.00;25.00;;;;;;5072847;28;20257;-73
2022/02/13 09:22:47;;;;;;;16.60;5.80;;;5.10;25.40;;;;;;5071586;28;20268;-73
2022/02/13 09:25:12;;;;;;;11.93;5.67;;;5.20;25.00;;;;;;5073127;28;20175;-73
2022/02/13 09:27:38;;;;;;;8.77;5.27;;;5.40;25.00;;;;;;5073705;28;20570;-74
2022/02/13 09:30:05;;;;;;;10.20;5.80;;;5.30;24.20;;;;;;5074088;28;20500;-74
2022/02/13 09:32:30;;;;;;;13.73;5.32;;;5.30;24.50;;;;;;5072393;28;20210;-73
2022/02/13 09:34:56;;;;;;;6.70;5.00;;;5.30;24.00;;;;;;5074391;28;20261;-73
2022/02/13 09:37:23;;;;;;;13.80;5.60;;;5.30;24.50;;;;;;5074167;28;20205;-73
2022/02/13 09:39:49;;;;;;;9.82;6.00;;;5.50;24.30;;;;;;5074210;28;20240;-73
2022/02/13 09:42:18;;;;;;;7.20;4.70;;;5.60;23.10;;;;;;5073445;28;20198;-74
2022/02/13 09:44:44;;;;;;;9.40;4.90;;;5.90;23.40;;;;;;5073252;28;20485;-72
2022/02/13 09:47:09;;;;;;;10.80;5.90;;;6.00;23.50;;;;;;5072592;28;20261;-72
2022/02/13 09:49:35;;;;;;;14.53;5.87;;;6.00;22.10;;;;;;5072971;28;20620;-74
2022/02/13 09:52:01;;;;;;;17.40;5.27;;;6.10;21.60;;;;;;5073658;28;20659;-72
2022/02/13 09:54:27;;;;;;;9.68;5.60;;;6.00;21.70;;;;;;5073403;28;20174;-73
2022/02/13 09:57:59;;;;;;;13.27;5.70;;;6.30;21.70;;;;;;5073090;28;20189;-73
2022/02/13 09:59:59;;;;;;;10.00;5.43;;;6.40;21.60;;;;;;5073954;28;20178;-73
2022/02/13 10:02:37;;;;;;;7.97;5.30;;;6.40;21.50;;;;;;5073835;28;20563;-73
2022/02/13 10:05:05;;;;;;;13.00;6.03;;;6.40;21.10;;;;;;5074657;28;20174;-73
2022/02/13 10:07:32;;;;;;;11.10;5.45;;;6.50;21.20;;;;;;5072737;28;20511;-73
2022/02/13 10:09:59;;;;;;;9.40;4.97;;;6.70;20.40;;;;;;5071597;28;20201;-73
2022/02/13 10:12:39;;;;;;;15.07;6.05;;;6.70;20.80;;;;;;5072053;28;20660;-73
2022/02/13 10:15:29;;;;;;;10.13;5.45;;;6.80;20.50;;;;;;5072604;28;20182;-73
2022/02/13 10:18:09;;;;;;;8.60;4.97;;;6.70;20.70;;;;;;5072078;28;20213;-73
2022/02/13 10:20:40;;;;;;;10.30;5.18;;;6.80;20.70;;;;;;5071075;28;20407;-73
2022/02/13 10:23:11;;;;;;;7.17;4.47;;;7.10;20.00;;;;;;5072513;28;20198;-73
2022/02/13 10:25:37;;;;;;;11.90;5.37;;;7.00;20.40;;;;;;5072256;28;20466;-73
2022/02/13 10:28:14;;;;;;;5.27;4.60;;;7.30;20.00;;;;;;5072196;28;20417;-73
2022/02/13 10:30:45;;;;;;;9.80;4.53;;;7.50;19.20;;;;;;5071941;28;20405;-73
2022/02/13 10:33:24;;;;;;;9.17;4.43;;;7.60;19.40;;;;;;5072183;28;20433;-73
2022/02/13 10:36:05;;;;;;;9.63;4.63;;;7.70;18.70;;;;;;5072392;28;20473;-73
2022/02/13 10:38:32;;;;;;;11.50;4.20;;;7.50;18.40;;;;;;5072003;28;20456;-73
2022/02/13 10:41:18;;;;;;;5.97;4.60;;;7.50;18.30;;;;;;5073259;28;20408;-75
2022/02/13 10:44:02;;;;;;;12.07;5.20;;;7.60;18.00;;;;;;5072256;28;20405;-74
2022/02/13 10:46:32;;;;;;;7.23;5.37;;;7.70;18.20;;;;;;5071759;28;20444;-72
2022/02/13 10:48:58;;;;;;;11.33;5.03;;;7.40;18.90;;;;;;5071950;28;20419;-73
2022/02/13 10:51:24;;;;;;;8.57;4.87;;;7.40;19.00;;;;;;5071712;28;20432;-73
2022/02/13 10:53:51;;;;;;;7.07;4.73;;;7.60;19.00;;;;;;5071659;28;20417;-73
2022/02/13 10:56:18;;;;;;;8.13;5.50;;;7.90;19.20;;;;;;5071806;28;20409;-73
2022/02/13 10:58:43;;;;;;;6.93;4.67;;;7.70;18.50;;;;;;5071719;28;20983;-73
2022/02/13 11:01:09;;;;;;;8.47;5.00;;;7.70;18.50;;;;;;5070225;28;20417;-73
2022/02/13 11:03:37;;;;;;;14.20;6.28;;;7.80;18.60;;;;;;5070503;28;20387;-74
2022/02/13 11:06:05;;;;;;;8.80;5.10;;;7.80;19.40;;;;;;5071624;28;20239;-74
2022/02/13 11:08:35;;;;;;;10.60;5.70;;;7.80;18.60;;;;;;5071771;28;20412;-73
2022/02/13 11:11:01;;;;;;;10.03;4.90;;;8.00;18.40;;;;;;5072150;28;20404;-73
2022/02/13 11:13:31;;;;;;;6.43;4.43;;;8.10;18.60;;;;;;5071779;28;20463;-73
2022/02/13 11:15:57;;;;;;;6.27;4.70;;;8.30;18.20;;;;;;5071791;28;20918;-73
2022/02/13 11:18:26;;;;;;;8.48;5.70;;;8.30;17.80;;;;;;5070160;28;20404;-73
2022/02/13 11:20:54;;;;;;;7.43;4.83;;;8.50;17.40;;;;;;5072081;28;20174;-73
2022/02/13 11:23:26;;;;;;;10.83;5.07;;;8.40;18.00;;;;;;5074954;28;20432;-74
2022/02/13 11:25:59;;;;;;;7.10;4.87;;;8.60;17.50;;;;;;5075950;28;20444;-73
2022/02/13 11:28:41;;;;;;;9.03;4.83;;;8.80;17.40;;;;;;5075940;28;20416;-74
2022/02/13 11:31:07;;;;;;;8.00;5.17;;;8.90;17.70;;;;;;5075075;28;20517;-73
2022/02/13 11:33:37;;;;;;;12.40;5.53;;;9.10;16.90;;;;;;5075208;28;20487;-72
2022/02/13 11:36:05;;;;;;;8.60;4.50;;;9.10;17.20;;;;;;5075494;28;20179;-72
2022/02/13 11:38:37;;;;;;;9.00;5.40;;;9.30;16.50;;;;;;5075058;28;20462;-72
2022/02/13 11:41:04;;;;;;;10.20;5.60;;;9.50;16.50;;;;;;5073646;28;20477;-72
2022/02/13 11:43:44;;;;;;;8.57;5.00;;;9.60;16.30;;;;;;5075500;28;20416;-73
2022/02/13 11:46:10;;;;;;;9.90;5.20;;;9.80;16.10;;;;;;5076937;28;20422;-73
2022/02/13 11:48:36;;;;;;;12.57;4.97;;;9.80;15.50;;;;;;5076088;28;20413;-73
2022/02/13 11:51:02;;;;;;;7.73;5.17;;;9.90;15.70;;;;;;5074744;28;20420;-73
2022/02/13 11:53:30;;;;;;;10.43;5.23;;;10.00;16.00;;;;;;5075021;28;20167;-73
2022/02/13 11:56:24;;;;;;;9.93;5.60;;;10.20;15.30;;;;;;5074935;28;20412;-73
2022/02/13 11:58:51;;;;;;;8.70;5.20;;;9.90;16.00;;;;;;5074341;28;20465;-73
2022/02/13 12:01:35;;;;;;;6.57;4.47;;;9.70;16.20;;;;;;5074641;28;20435;-72
2022/02/13 12:04:01;;;;;;;12.13;5.63;;;9.80;16.20;;;;;;5074837;28;20485;-72
2022/02/13 12:06:30;;;;;;;9.57;4.90;;;10.00;16.30;;;;;;5074595;28;20978;-73
2022/02/13 12:08:57;;;;;;;10.13;5.40;;;10.20;15.40;;;;;;5074887;28;20483;-73
2022/02/13 12:11:33;;;;;;;8.53;5.20;;;10.40;16.10;;;;;;5075942;28;20448;-74
2022/02/13 12:14:16;;;;;;;13.47;5.67;;;10.60;15.20;;;;;;5075194;28;20396;-72
2022/02/13 12:16:56;;;;;;;11.60;5.77;;;10.40;15.00;;;;;;5075320;28;20488;-73
2022/02/13 12:19:33;;;;;;;8.43;4.70;;;10.30;15.10;;;;;;5074762;28;20819;-73
2022/02/13 12:22:25;;;;;;;9.17;4.57;;;10.20;15.40;;;;;;5074114;28;20526;-72
2022/02/13 12:24:52;;;;;;;9.27;5.77;;;10.00;16.00;;;;;;5072221;28;20413;-72
2022/02/13 12:27:21;;;;;;;8.27;4.33;;;10.00;15.60;;;;;;5074821;28;20408;-73
2022/02/13 12:29:55;;;;;;;10.63;5.57;;;9.90;15.80;;;;;;5074246;28;20414;-73
2022/02/13 12:32:26;;;;;;;7.90;4.40;;;9.90;15.70;;;;;;5073752;28;20453;-73
2022/02/13 12:34:56;;;;;;;8.00;5.07;;;10.00;16.90;;;;;;5072874;28;20424;-73
2022/02/13 12:37:32;;;;;;;10.77;5.50;;;10.10;15.70;;;;;;5074276;28;20467;-73
2022/02/13 12:39:58;;;;;;;14.50;5.40;;;10.30;15.70;;;;;;5074833;28;20411;-72
2022/02/13 12:42:28;;;;;;;9.30;5.20;;;10.40;14.90;;;;;;5074622;28;20424;-73
2022/02/13 12:44:55;;;;;;;8.47;4.50;;;10.40;15.70;;;;;;5074566;28;20926;-73
2022/02/13 12:47:31;;;;;;;7.67;5.60;;;10.50;16.10;;;;;;5074378;28;20495;-73
2022/02/13 12:50:00;;;;;;;8.83;4.93;;;10.60;15.20;;;;;;5073750;28;20838;-72
2022/02/13 12:52:26;;;;;;;9.77;5.30;;;10.80;15.70;;;;;;5073993;28;20430;-73